sensor_id;sensor_type;location;lat;lon;timestamp;P1;durP1;ratioP1;P2;durP2;ratioP2
56667;SDS011;42542;48.360;10.958;2024-02-28T00:02:30;28.05;;;10.23;;
56667;SDS011;42542;48.360;10.958;2024-02-28T00:05:32;31.60;;;10.80;;
56667;SDS011;42542;48.360;10.958;2024-02-28T00:08:34;27.33;;;10.82;;
56667;SDS011;42542;48.360;10.958;2024-02-28T00:11:42;27.50;;;10.18;;
56667;SDS011;42542;48.360;10.958;2024-02-28T00:14:47;25.75;;;9.80;;
56667;SDS011;42542;48.360;10.958;2024-02-28T00:17:51;27.08;;;10.10;;
56667;SDS011;42542;48.360;10.958;2024-02-28T00:20:54;26.35;;;9.95;;
56667;SDS011;42542;48.360;10.958;2024-02-28T00:23:56;25.08;;;9.85;;
56667;SDS011;42542;48.360;10.958;2024-02-28T00:26:58;29.17;;;10.93;;
56667;SDS011;42542;48.360;10.958;2024-02-28T00:29:59;29.90;;;10.50;;
56667;SDS011;42542;48.360;10.958;2024-02-28T00:33:01;29.77;;;10.48;;
56667;SDS011;42542;48.360;10.958;2024-02-28T00:36:03;29.17;;;10.67;;
56667;SDS011;42542;48.360;10.958;2024-02-28T00:39:05;25.15;;;10.57;;
56667;SDS011;42542;48.360;10.958;2024-02-28T00:42:08;27.33;;;10.25;;
56667;SDS011;42542;48.360;10.958;2024-02-28T00:45:09;29.00;;;10.35;;
56667;SDS011;42542;48.360;10.958;2024-02-28T00:48:12;28.20;;;10.57;;
56667;SDS011;42542;48.360;10.958;2024-02-28T00:51:14;25.02;;;9.80;;
56667;SDS011;42542;48.360;10.958;2024-02-28T00:54:16;30.35;;;10.48;;
56667;SDS011;42542;48.360;10.958;2024-02-28T00:57:18;26.90;;;10.43;;
56667;SDS011;42542;48.360;10.958;2024-02-28T01:00:20;28.40;;;11.23;;
56667;SDS011;42542;48.360;10.958;2024-02-28T01:03:22;27.42;;;10.98;;
56667;SDS011;42542;48.360;10.958;2024-02-28T01:06:24;24.87;;;9.87;;
56667;SDS011;42542;48.360;10.958;2024-02-28T01:09:25;29.48;;;10.68;;
56667;SDS011;42542;48.360;10.958;2024-02-28T01:12:28;31.13;;;10.73;;
56667;SDS011;42542;48.360;10.958;2024-02-28T01:15:30;26.15;;;10.80;;
56667;SDS011;42542;48.360;10.958;2024-02-28T01:18:33;27.08;;;10.52;;
56667;SDS011;42542;48.360;10.958;2024-02-28T01:21:34;30.25;;;11.07;;
56667;SDS011;42542;48.360;10.958;2024-02-28T01:24:37;29.92;;;11.20;;
56667;SDS011;42542;48.360;10.958;2024-02-28T01:27:39;29.13;;;10.90;;
56667;SDS011;42542;48.360;10.958;2024-02-28T01:30:41;27.60;;;10.90;;
56667;SDS011;42542;48.360;10.958;2024-02-28T01:33:43;28.77;;;10.95;;
56667;SDS011;42542;48.360;10.958;2024-02-28T01:36:44;31.30;;;10.83;;
56667;SDS011;42542;48.360;10.958;2024-02-28T01:39:47;29.35;;;11.00;;
56667;SDS011;42542;48.360;10.958;2024-02-28T01:42:48;26.15;;;10.48;;
56667;SDS011;42542;48.360;10.958;2024-02-28T01:45:51;28.40;;;10.38;;
56667;SDS011;42542;48.360;10.958;2024-02-28T01:48:53;27.33;;;10.60;;
56667;SDS011;42542;48.360;10.958;2024-02-28T01:51:56;29.88;;;11.10;;
56667;SDS011;42542;48.360;10.958;2024-02-28T01:54:58;29.10;;;10.82;;
56667;SDS011;42542;48.360;10.958;2024-02-28T01:58:01;29.00;;;10.87;;
56667;SDS011;42542;48.360;10.958;2024-02-28T02:01:03;29.73;;;11.68;;
56667;SDS011;42542;48.360;10.958;2024-02-28T02:04:09;30.35;;;11.00;;
56667;SDS011;42542;48.360;10.958;2024-02-28T02:07:10;29.70;;;11.43;;
56667;SDS011;42542;48.360;10.958;2024-02-28T02:10:13;32.60;;;10.82;;
56667;SDS011;42542;48.360;10.958;2024-02-28T02:13:15;31.73;;;11.40;;
56667;SDS011;42542;48.360;10.958;2024-02-28T02:16:18;28.35;;;11.05;;
56667;SDS011;42542;48.360;10.958;2024-02-28T02:19:21;31.15;;;10.52;;
56667;SDS011;42542;48.360;10.958;2024-02-28T02:22:23;30.85;;;11.45;;
56667;SDS011;42542;48.360;10.958;2024-02-28T02:25:31;28.27;;;10.73;;
56667;SDS011;42542;48.360;10.958;2024-02-28T02:28:33;28.17;;;10.50;;
56667;SDS011;42542;48.360;10.958;2024-02-28T02:31:35;29.58;;;10.90;;
56667;SDS011;42542;48.360;10.958;2024-02-28T02:34:38;31.05;;;11.23;;
56667;SDS011;42542;48.360;10.958;2024-02-28T02:37:43;30.57;;;11.23;;
56667;SDS011;42542;48.360;10.958;2024-02-28T02:40:50;30.50;;;11.15;;
56667;SDS011;42542;48.360;10.958;2024-02-28T02:43:52;29.90;;;11.10;;
56667;SDS011;42542;48.360;10.958;2024-02-28T02:46:54;28.38;;;11.02;;
56667;SDS011;42542;48.360;10.958;2024-02-28T02:49:56;33.22;;;11.35;;
56667;SDS011;42542;48.360;10.958;2024-02-28T02:52:59;30.25;;;11.40;;
56667;SDS011;42542;48.360;10.958;2024-02-28T02:56:03;31.10;;;11.20;;
56667;SDS011;42542;48.360;10.958;2024-02-28T02:59:05;30.30;;;11.00;;
56667;SDS011;42542;48.360;10.958;2024-02-28T03:02:07;34.60;;;12.30;;
56667;SDS011;42542;48.360;10.958;2024-02-28T03:05:09;30.75;;;10.73;;
56667;SDS011;42542;48.360;10.958;2024-02-28T03:08:11;31.67;;;11.67;;
56667;SDS011;42542;48.360;10.958;2024-02-28T03:11:13;32.33;;;11.50;;
56667;SDS011;42542;48.360;10.958;2024-02-28T03:14:15;32.63;;;11.70;;
56667;SDS011;42542;48.360;10.958;2024-02-28T03:17:17;30.08;;;11.35;;
56667;SDS011;42542;48.360;10.958;2024-02-28T03:20:20;29.35;;;11.25;;
56667;SDS011;42542;48.360;10.958;2024-02-28T03:23:22;30.15;;;11.20;;
56667;SDS011;42542;48.360;10.958;2024-02-28T03:26:24;31.70;;;11.55;;
56667;SDS011;42542;48.360;10.958;2024-02-28T03:29:26;34.20;;;12.23;;
56667;SDS011;42542;48.360;10.958;2024-02-28T03:32:28;32.70;;;12.25;;
56667;SDS011;42542;48.360;10.958;2024-02-28T03:35:29;32.65;;;11.85;;
56667;SDS011;42542;48.360;10.958;2024-02-28T03:38:31;34.87;;;12.60;;
56667;SDS011;42542;48.360;10.958;2024-02-28T03:41:33;38.30;;;12.15;;
56667;SDS011;42542;48.360;10.958;2024-02-28T03:44:35;34.60;;;12.18;;
56667;SDS011;42542;48.360;10.958;2024-02-28T03:47:36;36.28;;;12.25;;
56667;SDS011;42542;48.360;10.958;2024-02-28T03:50:38;35.72;;;11.80;;
56667;SDS011;42542;48.360;10.958;2024-02-28T03:53:40;31.98;;;11.60;;
56667;SDS011;42542;48.360;10.958;2024-02-28T03:56:42;33.03;;;12.20;;
56667;SDS011;42542;48.360;10.958;2024-02-28T03:59:43;37.47;;;12.23;;
56667;SDS011;42542;48.360;10.958;2024-02-28T04:02:46;32.08;;;11.20;;
56667;SDS011;42542;48.360;10.958;2024-02-28T04:05:47;33.67;;;12.00;;
56667;SDS011;42542;48.360;10.958;2024-02-28T04:08:50;35.23;;;13.40;;
56667;SDS011;42542;48.360;10.958;2024-02-28T04:11:52;35.15;;;12.35;;
56667;SDS011;42542;48.360;10.958;2024-02-28T04:14:54;35.45;;;12.60;;
56667;SDS011;42542;48.360;10.958;2024-02-28T04:17:55;33.75;;;12.88;;
56667;SDS011;42542;48.360;10.958;2024-02-28T04:20:58;32.33;;;12.38;;
56667;SDS011;42542;48.360;10.958;2024-02-28T04:24:00;40.58;;;12.60;;
56667;SDS011;42542;48.360;10.958;2024-02-28T04:27:02;32.55;;;12.23;;
56667;SDS011;42542;48.360;10.958;2024-02-28T04:30:07;34.40;;;11.87;;
56667;SDS011;42542;48.360;10.958;2024-02-28T04:33:09;35.03;;;12.23;;
56667;SDS011;42542;48.360;10.958;2024-02-28T04:36:11;33.85;;;12.63;;
56667;SDS011;42542;48.360;10.958;2024-02-28T04:39:13;33.83;;;12.07;;
56667;SDS011;42542;48.360;10.958;2024-02-28T04:42:15;35.95;;;12.40;;
56667;SDS011;42542;48.360;10.958;2024-02-28T04:45:17;37.78;;;12.75;;
56667;SDS011;42542;48.360;10.958;2024-02-28T04:48:20;35.13;;;12.60;;
56667;SDS011;42542;48.360;10.958;2024-02-28T04:51:22;36.80;;;12.95;;
56667;SDS011;42542;48.360;10.958;2024-02-28T04:54:23;34.85;;;12.43;;
56667;SDS011;42542;48.360;10.958;2024-02-28T04:57:26;35.60;;;12.52;;
56667;SDS011;42542;48.360;10.958;2024-02-28T05:00:29;34.23;;;11.97;;
56667;SDS011;42542;48.360;10.958;2024-02-28T05:03:30;37.28;;;12.65;;
56667;SDS011;42542;48.360;10.958;2024-02-28T05:06:33;32.00;;;11.68;;
56667;SDS011;42542;48.360;10.958;2024-02-28T05:09:39;35.93;;;12.60;;
56667;SDS011;42542;48.360;10.958;2024-02-28T05:12:41;38.70;;;13.85;;
56667;SDS011;42542;48.360;10.958;2024-02-28T05:15:44;37.15;;;12.23;;
56667;SDS011;42542;48.360;10.958;2024-02-28T05:18:45;40.97;;;13.02;;
56667;SDS011;42542;48.360;10.958;2024-02-28T05:21:48;37.58;;;13.43;;
56667;SDS011;42542;48.360;10.958;2024-02-28T05:24:50;37.08;;;12.80;;
56667;SDS011;42542;48.360;10.958;2024-02-28T05:27:52;44.13;;;14.18;;
56667;SDS011;42542;48.360;10.958;2024-02-28T05:30:54;37.57;;;13.07;;
56667;SDS011;42542;48.360;10.958;2024-02-28T05:33:57;40.42;;;13.13;;
56667;SDS011;42542;48.360;10.958;2024-02-28T05:36:59;38.05;;;12.48;;
56667;SDS011;42542;48.360;10.958;2024-02-28T05:40:02;41.80;;;12.83;;
56667;SDS011;42542;48.360;10.958;2024-02-28T05:43:04;38.97;;;12.10;;
56667;SDS011;42542;48.360;10.958;2024-02-28T05:46:07;40.03;;;12.90;;
56667;SDS011;42542;48.360;10.958;2024-02-28T05:49:08;39.05;;;13.20;;
56667;SDS011;42542;48.360;10.958;2024-02-28T05:52:10;38.90;;;12.95;;
56667;SDS011;42542;48.360;10.958;2024-02-28T05:55:12;37.78;;;12.02;;
56667;SDS011;42542;48.360;10.958;2024-02-28T05:58:14;40.47;;;13.18;;
56667;SDS011;42542;48.360;10.958;2024-02-28T06:01:17;43.77;;;13.07;;
56667;SDS011;42542;48.360;10.958;2024-02-28T06:04:20;39.88;;;12.95;;
56667;SDS011;42542;48.360;10.958;2024-02-28T06:07:22;38.42;;;12.23;;
56667;SDS011;42542;48.360;10.958;2024-02-28T06:10:25;40.70;;;13.23;;
56667;SDS011;42542;48.360;10.958;2024-02-28T06:13:27;43.83;;;13.25;;
56667;SDS011;42542;48.360;10.958;2024-02-28T06:16:32;40.10;;;12.85;;
56667;SDS011;42542;48.360;10.958;2024-02-28T06:19:34;43.45;;;13.63;;
56667;SDS011;42542;48.360;10.958;2024-02-28T06:22:36;38.70;;;13.00;;
56667;SDS011;42542;48.360;10.958;2024-02-28T06:25:38;38.13;;;12.85;;
56667;SDS011;42542;48.360;10.958;2024-02-28T06:28:40;41.28;;;13.02;;
56667;SDS011;42542;48.360;10.958;2024-02-28T06:31:44;43.77;;;12.93;;
56667;SDS011;42542;48.360;10.958;2024-02-28T06:34:45;41.92;;;13.13;;
56667;SDS011;42542;48.360;10.958;2024-02-28T06:37:48;42.22;;;13.10;;
56667;SDS011;42542;48.360;10.958;2024-02-28T06:40:52;41.00;;;13.20;;
56667;SDS011;42542;48.360;10.958;2024-02-28T06:43:54;41.17;;;13.23;;
56667;SDS011;42542;48.360;10.958;2024-02-28T06:46:55;45.65;;;13.60;;
56667;SDS011;42542;48.360;10.958;2024-02-28T06:49:57;46.38;;;12.95;;
56667;SDS011;42542;48.360;10.958;2024-02-28T06:52:59;37.33;;;12.60;;
56667;SDS011;42542;48.360;10.958;2024-02-28T06:56:01;37.38;;;12.77;;
56667;SDS011;42542;48.360;10.958;2024-02-28T06:59:04;35.58;;;11.88;;
56667;SDS011;42542;48.360;10.958;2024-02-28T07:02:06;37.50;;;12.53;;
56667;SDS011;42542;48.360;10.958;2024-02-28T07:05:09;40.83;;;13.02;;
56667;SDS011;42542;48.360;10.958;2024-02-28T07:08:11;41.17;;;12.93;;
56667;SDS011;42542;48.360;10.958;2024-02-28T07:11:14;40.27;;;13.23;;
56667;SDS011;42542;48.360;10.958;2024-02-28T07:14:16;37.72;;;12.60;;
56667;SDS011;42542;48.360;10.958;2024-02-28T07:17:20;37.88;;;12.32;;
56667;SDS011;42542;48.360;10.958;2024-02-28T07:20:22;38.58;;;12.85;;
56667;SDS011;42542;48.360;10.958;2024-02-28T07:23:24;34.05;;;13.02;;
56667;SDS011;42542;48.360;10.958;2024-02-28T07:26:26;36.80;;;11.95;;
56667;SDS011;42542;48.360;10.958;2024-02-28T07:29:28;42.03;;;12.93;;
56667;SDS011;42542;48.360;10.958;2024-02-28T07:32:30;39.13;;;13.33;;
56667;SDS011;42542;48.360;10.958;2024-02-28T07:35:46;38.33;;;12.82;;
56667;SDS011;42542;48.360;10.958;2024-02-28T07:38:49;35.28;;;11.75;;
56667;SDS011;42542;48.360;10.958;2024-02-28T07:41:51;39.13;;;12.27;;
56667;SDS011;42542;48.360;10.958;2024-02-28T07:44:57;40.95;;;13.35;;
56667;SDS011;42542;48.360;10.958;2024-02-28T07:48:00;35.78;;;12.32;;
56667;SDS011;42542;48.360;10.958;2024-02-28T07:51:06;41.08;;;12.18;;
56667;SDS011;42542;48.360;10.958;2024-02-28T07:54:09;36.28;;;11.90;;
56667;SDS011;42542;48.360;10.958;2024-02-28T07:57:11;37.28;;;12.10;;
56667;SDS011;42542;48.360;10.958;2024-02-28T08:00:13;36.83;;;12.23;;
56667;SDS011;42542;48.360;10.958;2024-02-28T08:03:18;37.97;;;11.80;;
56667;SDS011;42542;48.360;10.958;2024-02-28T08:06:20;39.97;;;12.52;;
56667;SDS011;42542;48.360;10.958;2024-02-28T08:09:23;38.58;;;12.15;;
56667;SDS011;42542;48.360;10.958;2024-02-28T08:12:25;37.80;;;12.07;;
56667;SDS011;42542;48.360;10.958;2024-02-28T08:15:27;39.00;;;11.90;;
56667;SDS011;42542;48.360;10.958;2024-02-28T08:18:29;36.85;;;12.27;;
56667;SDS011;42542;48.360;10.958;2024-02-28T08:21:31;36.92;;;11.98;;
56667;SDS011;42542;48.360;10.958;2024-02-28T08:24:32;41.45;;;12.15;;
56667;SDS011;42542;48.360;10.958;2024-02-28T08:27:36;41.38;;;12.60;;
56667;SDS011;42542;48.360;10.958;2024-02-28T08:30:38;41.33;;;13.13;;
56667;SDS011;42542;48.360;10.958;2024-02-28T08:33:40;40.97;;;11.77;;
56667;SDS011;42542;48.360;10.958;2024-02-28T08:36:43;42.85;;;12.70;;
56667;SDS011;42542;48.360;10.958;2024-02-28T08:39:46;38.45;;;12.40;;
56667;SDS011;42542;48.360;10.958;2024-02-28T08:42:48;44.10;;;13.20;;
56667;SDS011;42542;48.360;10.958;2024-02-28T08:45:55;39.60;;;12.90;;
56667;SDS011;42542;48.360;10.958;2024-02-28T08:48:57;42.33;;;13.50;;
56667;SDS011;42542;48.360;10.958;2024-02-28T08:51:58;47.42;;;12.45;;
56667;SDS011;42542;48.360;10.958;2024-02-28T08:55:00;45.92;;;12.57;;
56667;SDS011;42542;48.360;10.958;2024-02-28T08:58:02;46.13;;;12.45;;
56667;SDS011;42542;48.360;10.958;2024-02-28T09:01:05;45.13;;;12.95;;
56667;SDS011;42542;48.360;10.958;2024-02-28T09:04:07;44.23;;;12.80;;
56667;SDS011;42542;48.360;10.958;2024-02-28T09:07:10;41.10;;;12.65;;
56667;SDS011;42542;48.360;10.958;2024-02-28T09:10:11;38.45;;;12.55;;
56667;SDS011;42542;48.360;10.958;2024-02-28T09:13:13;39.03;;;12.43;;
56667;SDS011;42542;48.360;10.958;2024-02-28T09:16:16;39.83;;;12.65;;
56667;SDS011;42542;48.360;10.958;2024-02-28T09:19:18;39.53;;;12.50;;
56667;SDS011;42542;48.360;10.958;2024-02-28T09:22:20;41.17;;;12.55;;
56667;SDS011;42542;48.360;10.958;2024-02-28T09:25:23;36.00;;;12.30;;
56667;SDS011;42542;48.360;10.958;2024-02-28T09:28:29;39.05;;;12.63;;
56667;SDS011;42542;48.360;10.958;2024-02-28T09:31:31;41.30;;;12.52;;
56667;SDS011;42542;48.360;10.958;2024-02-28T09:34:33;39.67;;;13.43;;
56667;SDS011;42542;48.360;10.958;2024-02-28T09:37:36;42.05;;;14.30;;
56667;SDS011;42542;48.360;10.958;2024-02-28T09:40:38;41.88;;;12.65;;
56667;SDS011;42542;48.360;10.958;2024-02-28T09:43:41;36.87;;;12.40;;
56667;SDS011;42542;48.360;10.958;2024-02-28T09:46:43;36.13;;;11.63;;
56667;SDS011;42542;48.360;10.958;2024-02-28T09:49:46;39.40;;;11.82;;
56667;SDS011;42542;48.360;10.958;2024-02-28T09:52:53;44.75;;;12.27;;
56667;SDS011;42542;48.360;10.958;2024-02-28T09:56:11;38.38;;;11.75;;
56667;SDS011;42542;48.360;10.958;2024-02-28T09:59:13;42.25;;;11.77;;
56667;SDS011;42542;48.360;10.958;2024-02-28T10:02:16;36.67;;;11.80;;
56667;SDS011;42542;48.360;10.958;2024-02-28T10:05:21;36.63;;;11.43;;
56667;SDS011;42542;48.360;10.958;2024-02-28T10:08:28;39.78;;;12.40;;
56667;SDS011;42542;48.360;10.958;2024-02-28T10:11:30;40.90;;;12.23;;
56667;SDS011;42542;48.360;10.958;2024-02-28T10:14:32;43.90;;;12.93;;
56667;SDS011;42542;48.360;10.958;2024-02-28T10:17:34;34.13;;;12.15;;
56667;SDS011;42542;48.360;10.958;2024-02-28T10:20:36;39.08;;;12.40;;
56667;SDS011;42542;48.360;10.958;2024-02-28T10:23:37;41.65;;;12.55;;
56667;SDS011;42542;48.360;10.958;2024-02-28T10:26:47;36.67;;;12.07;;
56667;SDS011;42542;48.360;10.958;2024-02-28T10:29:58;40.00;;;11.77;;
56667;SDS011;42542;48.360;10.958;2024-02-28T10:33:00;34.63;;;11.32;;
56667;SDS011;42542;48.360;10.958;2024-02-28T10:36:03;35.87;;;11.33;;
56667;SDS011;42542;48.360;10.958;2024-02-28T10:39:06;36.50;;;11.40;;
56667;SDS011;42542;48.360;10.958;2024-02-28T10:42:08;36.67;;;11.40;;
56667;SDS011;42542;48.360;10.958;2024-02-28T10:45:13;34.37;;;12.27;;
56667;SDS011;42542;48.360;10.958;2024-02-28T10:48:30;38.78;;;11.93;;
56667;SDS011;42542;48.360;10.958;2024-02-28T10:51:34;44.35;;;12.55;;
56667;SDS011;42542;48.360;10.958;2024-02-28T10:54:40;41.33;;;12.35;;
56667;SDS011;42542;48.360;10.958;2024-02-28T10:57:43;38.67;;;12.30;;
56667;SDS011;42542;48.360;10.958;2024-02-28T11:00:49;42.45;;;12.43;;
56667;SDS011;42542;48.360;10.958;2024-02-28T11:03:52;41.10;;;12.27;;
56667;SDS011;42542;48.360;10.958;2024-02-28T11:06:56;39.00;;;12.00;;
56667;SDS011;42542;48.360;10.958;2024-02-28T11:09:58;38.65;;;12.35;;
56667;SDS011;42542;48.360;10.958;2024-02-28T11:13:08;36.15;;;11.82;;
56667;SDS011;42542;48.360;10.958;2024-02-28T11:16:12;42.20;;;11.77;;
56667;SDS011;42542;48.360;10.958;2024-02-28T11:19:20;39.95;;;12.32;;
56667;SDS011;42542;48.360;10.958;2024-02-28T11:22:23;39.75;;;12.35;;
56667;SDS011;42542;48.360;10.958;2024-02-28T11:25:24;39.67;;;11.75;;
56667;SDS011;42542;48.360;10.958;2024-02-28T11:28:26;35.55;;;10.98;;
56667;SDS011;42542;48.360;10.958;2024-02-28T11:31:29;39.88;;;12.30;;
56667;SDS011;42542;48.360;10.958;2024-02-28T11:34:30;41.55;;;12.32;;
56667;SDS011;42542;48.360;10.958;2024-02-28T11:37:32;43.60;;;12.57;;
56667;SDS011;42542;48.360;10.958;2024-02-28T11:40:36;37.65;;;12.63;;
56667;SDS011;42542;48.360;10.958;2024-02-28T11:43:38;39.92;;;13.02;;
56667;SDS011;42542;48.360;10.958;2024-02-28T11:46:52;39.63;;;13.20;;
56667;SDS011;42542;48.360;10.958;2024-02-28T11:49:57;44.08;;;13.25;;
56667;SDS011;42542;48.360;10.958;2024-02-28T11:53:00;38.25;;;12.43;;
56667;SDS011;42542;48.360;10.958;2024-02-28T11:56:03;47.17;;;13.45;;
56667;SDS011;42542;48.360;10.958;2024-02-28T11:59:06;39.30;;;12.38;;
56667;SDS011;42542;48.360;10.958;2024-02-28T12:02:11;37.42;;;12.55;;
56667;SDS011;42542;48.360;10.958;2024-02-28T12:05:38;37.47;;;12.23;;
56667;SDS011;42542;48.360;10.958;2024-02-28T12:08:41;37.40;;;12.23;;
56667;SDS011;42542;48.360;10.958;2024-02-28T12:11:42;39.05;;;12.77;;
56667;SDS011;42542;48.360;10.958;2024-02-28T12:14:45;33.42;;;11.93;;
56667;SDS011;42542;48.360;10.958;2024-02-28T12:17:48;39.57;;;12.83;;
56667;SDS011;42542;48.360;10.958;2024-02-28T12:20:50;39.88;;;13.18;;
56667;SDS011;42542;48.360;10.958;2024-02-28T12:23:51;40.60;;;13.13;;
56667;SDS011;42542;48.360;10.958;2024-02-28T12:26:53;42.33;;;12.95;;
56667;SDS011;42542;48.360;10.958;2024-02-28T12:29:55;49.15;;;14.40;;
56667;SDS011;42542;48.360;10.958;2024-02-28T12:32:58;42.45;;;13.93;;
56667;SDS011;42542;48.360;10.958;2024-02-28T12:35:59;39.05;;;12.38;;
56667;SDS011;42542;48.360;10.958;2024-02-28T12:39:05;41.90;;;12.17;;
56667;SDS011;42542;48.360;10.958;2024-02-28T12:42:07;46.67;;;13.95;;
56667;SDS011;42542;48.360;10.958;2024-02-28T12:45:10;43.47;;;12.65;;
56667;SDS011;42542;48.360;10.958;2024-02-28T12:48:12;45.47;;;13.83;;
56667;SDS011;42542;48.360;10.958;2024-02-28T12:51:31;43.65;;;13.35;;
56667;SDS011;42542;48.360;10.958;2024-02-28T12:54:38;40.03;;;12.90;;
56667;SDS011;42542;48.360;10.958;2024-02-28T12:57:39;40.38;;;12.77;;
56667;SDS011;42542;48.360;10.958;2024-02-28T13:00:41;42.00;;;12.63;;
56667;SDS011;42542;48.360;10.958;2024-02-28T13:03:43;39.90;;;12.18;;
56667;SDS011;42542;48.360;10.958;2024-02-28T13:06:45;39.17;;;12.38;;
56667;SDS011;42542;48.360;10.958;2024-02-28T13:09:47;36.00;;;12.07;;
56667;SDS011;42542;48.360;10.958;2024-02-28T13:12:49;36.90;;;12.40;;
56667;SDS011;42542;48.360;10.958;2024-02-28T13:15:50;42.15;;;12.32;;
56667;SDS011;42542;48.360;10.958;2024-02-28T13:18:52;40.37;;;12.40;;
56667;SDS011;42542;48.360;10.958;2024-02-28T13:21:55;36.50;;;11.95;;
56667;SDS011;42542;48.360;10.958;2024-02-28T13:24:57;36.10;;;11.75;;
56667;SDS011;42542;48.360;10.958;2024-02-28T13:27:59;39.83;;;12.32;;
56667;SDS011;42542;48.360;10.958;2024-02-28T13:31:02;40.88;;;12.20;;
56667;SDS011;42542;48.360;10.958;2024-02-28T13:34:05;39.30;;;12.90;;
56667;SDS011;42542;48.360;10.958;2024-02-28T13:37:08;34.75;;;12.10;;
56667;SDS011;42542;48.360;10.958;2024-02-28T13:40:10;42.83;;;13.00;;
56667;SDS011;42542;48.360;10.958;2024-02-28T13:43:12;39.65;;;13.50;;
56667;SDS011;42542;48.360;10.958;2024-02-28T13:46:14;36.25;;;12.00;;
56667;SDS011;42542;48.360;10.958;2024-02-28T13:49:16;36.43;;;11.77;;
56667;SDS011;42542;48.360;10.958;2024-02-28T13:52:20;37.13;;;11.55;;
56667;SDS011;42542;48.360;10.958;2024-02-28T13:55:22;36.53;;;11.25;;
56667;SDS011;42542;48.360;10.958;2024-02-28T13:58:24;34.42;;;11.35;;
56667;SDS011;42542;48.360;10.958;2024-02-28T14:01:37;32.55;;;11.70;;
56667;SDS011;42542;48.360;10.958;2024-02-28T14:04:39;38.05;;;12.15;;
56667;SDS011;42542;48.360;10.958;2024-02-28T14:07:44;34.97;;;12.05;;
56667;SDS011;42542;48.360;10.958;2024-02-28T14:10:45;35.13;;;11.60;;
56667;SDS011;42542;48.360;10.958;2024-02-28T14:13:48;39.60;;;12.25;;
56667;SDS011;42542;48.360;10.958;2024-02-28T14:16:50;35.85;;;11.77;;
56667;SDS011;42542;48.360;10.958;2024-02-28T14:19:52;33.43;;;10.53;;
56667;SDS011;42542;48.360;10.958;2024-02-28T14:22:53;32.45;;;10.82;;
56667;SDS011;42542;48.360;10.958;2024-02-28T14:25:55;33.40;;;10.60;;
56667;SDS011;42542;48.360;10.958;2024-02-28T14:28:58;29.02;;;10.82;;
56667;SDS011;42542;48.360;10.958;2024-02-28T14:32:00;30.92;;;10.80;;
56667;SDS011;42542;48.360;10.958;2024-02-28T14:35:04;37.38;;;11.10;;
56667;SDS011;42542;48.360;10.958;2024-02-28T14:38:08;34.25;;;10.80;;
56667;SDS011;42542;48.360;10.958;2024-02-28T14:41:09;32.00;;;11.03;;
56667;SDS011;42542;48.360;10.958;2024-02-28T14:44:12;35.85;;;11.60;;
56667;SDS011;42542;48.360;10.958;2024-02-28T14:47:14;35.70;;;11.45;;
56667;SDS011;42542;48.360;10.958;2024-02-28T14:50:17;33.33;;;10.60;;
56667;SDS011;42542;48.360;10.958;2024-02-28T14:53:19;29.55;;;10.38;;
56667;SDS011;42542;48.360;10.958;2024-02-28T14:56:22;31.00;;;11.32;;
56667;SDS011;42542;48.360;10.958;2024-02-28T14:59:24;35.38;;;12.60;;
56667;SDS011;42542;48.360;10.958;2024-02-28T15:02:26;34.10;;;12.07;;
56667;SDS011;42542;48.360;10.958;2024-02-28T15:05:28;38.95;;;12.27;;
56667;SDS011;42542;48.360;10.958;2024-02-28T15:08:31;38.90;;;12.32;;
56667;SDS011;42542;48.360;10.958;2024-02-28T15:11:33;34.57;;;12.30;;
56667;SDS011;42542;48.360;10.958;2024-02-28T15:14:35;36.88;;;12.23;;
56667;SDS011;42542;48.360;10.958;2024-02-28T15:17:37;39.70;;;12.15;;
56667;SDS011;42542;48.360;10.958;2024-02-28T15:20:39;38.33;;;13.13;;
56667;SDS011;42542;48.360;10.958;2024-02-28T15:23:41;31.40;;;11.52;;
56667;SDS011;42542;48.360;10.958;2024-02-28T15:26:42;38.33;;;12.30;;
56667;SDS011;42542;48.360;10.958;2024-02-28T15:29:48;31.38;;;11.90;;
56667;SDS011;42542;48.360;10.958;2024-02-28T15:32:49;43.35;;;14.10;;
56667;SDS011;42542;48.360;10.958;2024-02-28T15:35:51;43.08;;;13.85;;
56667;SDS011;42542;48.360;10.958;2024-02-28T15:38:54;38.50;;;13.45;;
56667;SDS011;42542;48.360;10.958;2024-02-28T15:41:55;35.13;;;12.80;;
56667;SDS011;42542;48.360;10.958;2024-02-28T15:44:58;43.15;;;15.95;;
56667;SDS011;42542;48.360;10.958;2024-02-28T15:47:59;50.05;;;18.02;;
56667;SDS011;42542;48.360;10.958;2024-02-28T15:51:02;41.33;;;13.77;;
56667;SDS011;42542;48.360;10.958;2024-02-28T15:54:05;47.58;;;15.05;;
56667;SDS011;42542;48.360;10.958;2024-02-28T15:57:10;35.38;;;13.13;;
56667;SDS011;42542;48.360;10.958;2024-02-28T16:00:12;36.25;;;12.82;;
56667;SDS011;42542;48.360;10.958;2024-02-28T16:03:14;47.03;;;16.83;;
56667;SDS011;42542;48.360;10.958;2024-02-28T16:06:16;34.47;;;12.68;;
56667;SDS011;42542;48.360;10.958;2024-02-28T16:09:20;41.40;;;14.50;;
56667;SDS011;42542;48.360;10.958;2024-02-28T16:12:22;34.17;;;13.60;;
56667;SDS011;42542;48.360;10.958;2024-02-28T16:15:29;41.10;;;13.98;;
56667;SDS011;42542;48.360;10.958;2024-02-28T16:18:31;39.88;;;13.98;;
56667;SDS011;42542;48.360;10.958;2024-02-28T16:21:33;37.53;;;14.97;;
56667;SDS011;42542;48.360;10.958;2024-02-28T16:24:34;40.70;;;13.98;;
56667;SDS011;42542;48.360;10.958;2024-02-28T16:27:39;47.08;;;17.55;;
56667;SDS011;42542;48.360;10.958;2024-02-28T16:30:40;43.72;;;18.35;;
56667;SDS011;42542;48.360;10.958;2024-02-28T16:33:48;41.95;;;15.45;;
56667;SDS011;42542;48.360;10.958;2024-02-28T16:36:49;42.80;;;15.75;;
56667;SDS011;42542;48.360;10.958;2024-02-28T16:39:52;38.40;;;14.13;;
56667;SDS011;42542;48.360;10.958;2024-02-28T16:42:54;32.27;;;12.13;;
56667;SDS011;42542;48.360;10.958;2024-02-28T16:45:56;32.08;;;11.93;;
56667;SDS011;42542;48.360;10.958;2024-02-28T16:48:59;36.03;;;12.70;;
56667;SDS011;42542;48.360;10.958;2024-02-28T16:52:02;35.07;;;11.97;;
56667;SDS011;42542;48.360;10.958;2024-02-28T16:55:04;37.58;;;13.35;;
56667;SDS011;42542;48.360;10.958;2024-02-28T16:58:10;40.03;;;12.30;;
56667;SDS011;42542;48.360;10.958;2024-02-28T17:01:13;36.92;;;12.95;;
56667;SDS011;42542;48.360;10.958;2024-02-28T17:04:14;41.33;;;14.30;;
56667;SDS011;42542;48.360;10.958;2024-02-28T17:07:17;34.83;;;13.32;;
56667;SDS011;42542;48.360;10.958;2024-02-28T17:10:20;40.00;;;13.65;;
56667;SDS011;42542;48.360;10.958;2024-02-28T17:13:22;41.27;;;12.87;;
56667;SDS011;42542;48.360;10.958;2024-02-28T17:16:23;36.70;;;13.00;;
56667;SDS011;42542;48.360;10.958;2024-02-28T17:19:25;36.50;;;12.82;;
56667;SDS011;42542;48.360;10.958;2024-02-28T17:22:27;38.57;;;13.47;;
56667;SDS011;42542;48.360;10.958;2024-02-28T17:25:30;35.50;;;12.98;;
56667;SDS011;42542;48.360;10.958;2024-02-28T17:28:32;41.88;;;14.98;;
56667;SDS011;42542;48.360;10.958;2024-02-28T17:31:34;48.30;;;15.68;;
56667;SDS011;42542;48.360;10.958;2024-02-28T17:34:36;39.97;;;13.82;;